Skip Navigation Links Skip Navigation Links

Current Weather

Danbury Muni, Danbury, Conn.

For information only: do not use for flight planning or navigation.
Latest weather
Observation time Saturday, January 23, 2021 7:53 PM EST
Local time Saturday, January 23, 2021 8:50 PM EST
Flight conditions Visual Meteorological Conditions
Winds
Wind direction West-Northwest (290°)
Wind speed 10 mph
Wind gusting to 18 mph
Visibility 10 mi.
Sky condition
Ceiling unlimited
Sky clear
Temperature 23°F
Dewpoint 1°F
Altimeter 30.09 in.Hg
Derived measurements
Relative humidity 38%
Wind chill 12°F
Density altitude -2178 ft.
Sea-level pressure 30.11 in.Hg
Remarks
Automated weather observing station with precipitation discriminator.
METAR KDXR 240053Z 29009G16KT 10SM CLR M05/M17 A3009 RMK AO2 SLP196 T10501172

Settings

Location code

InnerDrive.Weather 4.0.6770.0 Release CLR 4.0.30319.42000
Copyright ©2018 Inner Drive Technology. All rights reserved. Portions Copyright ©1986-2018 David Braverman.

Find weather

Site navigation


Skip Navigation Links

Place info

Page info

PayPal - The safer, easier way to pay online!

Return home.

Copyright ©2021 Inner Drive Technology. Purveyors of fine, hand-crafted computer software. Page printed 2021-01-24T01:50:10 UTC.